Weather observations for the past three days for
Rome State Airport
Metric (Imperial)
Date Time (mdt) Wind (kph) Vis. (km) Weather Sky Cond. Temperature (ºC) Relative Humidity Wind Chill (°C) Heat Index (°C) Pressure Precipitation (cm)
Air Dwpt 6 hour altimeter (cm) sea level (mb) 1 hr 3 hr 6 hr
Max. Min.
02 10:52 NE 6 0.00 NULL NULL 18.3 -5 20% 76.23 1013.5
02 09:52 Calm 0.00 NULL NULL 13.3 -5.6 27% 76.25 1014.5
02 08:52 SW 6 0.00 NULL NULL 10 -6.1 32% 76.25 1014.9
02 07:52 Calm 0.00 NULL NULL 6.7 -6.1 40% 76.23 1014.6
02 06:52 S 11 0.00 NULL NULL 2.2 -7.8 48% -1 76.23 1014.7
02 05:52 W 7 0.00 NULL NULL 2.8 -7.8 16.1 2.8 46% 1 76.23 1014.6
02 04:52 NE 13 0.00 NULL NULL 6.7 -7.2 37% 4 76.23 1014.3
02 03:52 W 7 0.00 NULL NULL 12.2 -8.3 23% 76.23 1013.4
02 02:52 S 22 0.00 NULL NULL 14.4 -8.3 20% 76.23 1013.3
02 01:52 SE 30 G 44 0.00 NULL NULL 15.6 -8.3 19% 76.25 1013.6
02 00:52 S 22 G 30 0.00 NULL NULL 13.9 -7.8 22% 76.25 1014.0
01 23:52 N 15 0.00 NULL NULL 11.7 -3.9 23.9 11.7 34% 76.28 1014.6
01 22:52 SE 13 0.00 NULL NULL 16.7 -8.9 17% 76.23 1014.0
01 21:52 SE 15 0.00 NULL NULL 16.7 -9.4 16% 76.2 1014.0
01 20:52 E 13 0.00 NULL NULL 16.1 -8.9 17% 76.17 1014.0
01 19:52 E 15 0.00 NULL NULL 20.6 -9.4 12% 76.17 1013.9
01 18:52 E 7 0.00 NULL NULL 22.8 -8.9 11% 76.2 1014.7
01 17:52 SE 11 0.00 NULL NULL 23.3 -8.3 24.4 18.3 11% 76.23 1014.9
01 16:52 Calm 0.00 NULL NULL 23.3 -7.8 12% 76.25 1015.1
01 15:52 SE 15 G 33 0.00 NULL NULL 22.8 -8.9 11% 76.33 1016.3
01 14:52 Calm 0.00 NULL NULL 21.7 -9.4 12% 76.38 1016.9
01 13:52 Calm 0.00 NULL NULL 21.1 -8.3 13% 76.43 1017.5
01 12:52 Vrbl 9 0.00 NULL NULL 20 -7.2 15% 76.48 1017.7
01 11:52 Vrbl 7 0.00 NULL NULL 18.9 -3.3 18.9 -1.1 22% 76.53 1018.5
01 10:52 N 7 0.00 NULL NULL 15.6 -1.7 31% 76.56 1019.6
01 09:52 NE 7 0.00 NULL NULL 13.3 -1.7 36% 76.58 1019.5
01 08:52 Calm 0.00 NULL NULL 9.4 -2.2 44% 76.58 1019.6
01 07:52 S 6 0.00 NULL NULL 5.6 -2.2 58% 76.56 1019.4
01 06:52 S 9 0.00 NULL NULL -0.6 -4.4 76% -3 76.53 1019.8
01 05:52 Calm 0.00 NULL NULL 0 -4.4 8.9 0 73% 76.5 1019.7
01 04:52 SE 6 0.00 NULL NULL 1.7 -4.4 64% 76.53 1019.3
01 02:52 Calm 0.00 NULL NULL 3.9 -3.3 60% 76.53 1019.2
01 01:52 Calm 0.00 NULL NULL 4.4 -2.8 60% 76.53 1019.1
01 00:52 E 13 0.00 NULL NULL 8.9 -1.7 48% 7 76.48 1018.1
30 23:52 E 15 0.00 NULL NULL 8.9 -2.2 20 8.9 46% 7 76.45 1018.2
30 22:52 E 13 0.00 NULL NULL 8.9 -2.8 44% 7 76.45 1018.2
30 21:52 NE 15 0.00 NULL NULL 12.8 -2.2 36% 76.38 1017.2
30 20:52 N 13 0.00 NULL NULL 15.6 -2.8 28% 76.33 1016.3
30 19:52 NE 13 0.00 NULL NULL 18.3 -3.3 23% 76.3 1015.8
30 18:52 NE 20 0.00 NULL NULL 19.4 -3.9 20% 76.3 1016.6
30 17:52 Calm 0.00 NULL NULL 18.9 -7.2 20.6 15.6 16% 76.33 1017.0
30 16:52 N 17 G 28 0.00 NULL NULL 20 -6.1 17% 76.35 1016.9
30 15:52 NW 19 0.00 NULL NULL 19.4 -7.2 16% 76.4 1017.8
30 14:52 N 13 G 31 0.00 NULL NULL 18.3 -6.7 18% 76.45 1018.3
30 13:52 Vrbl 7 0.00 NULL NULL 18.3 -5.6 19% 76.48 1018.6
30 12:52 N 15 0.00 NULL NULL 17.2 -5.6 21% 76.53 1019.2
30 11:52 Vrbl 9 0.00 NULL NULL 15.6 -2.8 15.6 -1.1 28% 76.56 1020.0
30 10:52 Vrbl 11 0.00 NULL NULL 13.9 -1.7 34% 76.58 1020.1
30 09:52 N 13 0.00 NULL NULL 11.7 -1.7 40% 76.61 1020.5
30 08:52 Calm 0.00 NULL NULL 8.9 -1.7 48% 76.61 1020.4
30 07:52 SW 6 0.00 NULL NULL 6.7 -1.1 58% 76.58 1020.1
30 06:52 S 9 0.00 NULL NULL 1.1 -2.2 79% -1 76.56 1020.3
30 05:52 S 9 0.00 NULL NULL -0.6 -3.3 6.1 -1.1 82% -3 76.56 1020.2
30 04:52 Calm 0.00 NULL NULL 0.6 -2.8 78% 76.56 1020.3
30 03:52 S 13 0.00 NULL NULL 1.1 -2.8 76% -2 76.56 1020.2
30 02:52 S 15 0.00 NULL NULL 2.8 -2.2 70% -1 76.56 1020.1
30 01:52 E 9 0.00 NULL NULL 3.3 -2.8 65% 1 76.56 1020.0
30 00:52 N 9 0.00 NULL NULL 5 -2.2 60% 3 76.56 1019.9
29 23:52 NE 11 0.00 NULL NULL 5.6 -2.2 18.9 5.6 58% 3 76.53 1019.9
29 22:52 E 13 0.00 NULL NULL 7.8 -1.7 51% 6 76.56 1020.1
29 21:52 E 13 0.00 NULL NULL 9.4 -2.2 44% 8 76.5 1019.5
29 20:52 NE 17 0.00 NULL NULL 13.9 -2.2 33% 76.43 1018.0
29 19:52 NE 17 0.00 NULL NULL 16.1 -3.3 26% 76.38 1017.3
29 18:52 NE 19 0.00 NULL NULL 16.7 -2.8 26% 76.4 1017.5
29 17:52 N 13 0.00 NULL NULL 18.9 -5 18.9 12.8 19% 76.38 1016.8
29 16:52 NW 17 0.00 NULL NULL 17.2 -5 22% 76.4 1017.6
29 15:52 NW 7 0.00 NULL NULL 17.2 -5 22% 76.43 1017.8
29 14:52 Vrbl 7 0.00 NULL NULL 17.2 -4.4 23% 76.43 1018.0
29 13:52 S 7 0.00 NULL NULL 16.7 -2.8 26% 76.45 1017.9
29 12:52 Vrbl 6 0.00 NULL NULL 14.4 -1.7 33% 76.5 1019.1
29 11:52 N 11 0.00 NULL NULL 12.8 -2.8 13.3 4.4 34% 76.53 1019.1
Date Time (mdt) Wind (kph) Vis. (km) Weather Sky Cond. Air Dwpt Max. Min. Relative Humidity Wind Chill (°C) Heat Index (°C) altimeter (cm) sea level (mb) 1 hr 3 hr 6 hr
6 hour
Temperature (ºC) Pressure Precipitation (cm)